Time;durP1;ratioP1;P1;durP2;ratioP2;P2;SDS_P1;SDS_P2;PMS_P1;PMS_P2;Temp;Humidity;BMP_temperature;BMP_pressure;BME280_temperature;BME280_humidity;BME280_pressure;Samples;Min_cycle;Max_cycle;Signal;HPM_P1;HPM_P2
2023/03/22 00:01:13;;;;;;;8.55;2.30;;;;;;;;;;5104752;28;20056;-77
2023/03/22 00:03:40;;;;;;;8.98;2.40;;;;;;;;;;5120899;27;20040;-76
2023/03/22 00:06:07;;;;;;;7.15;2.13;;;;;;;;;;5113693;27;20136;-77
2023/03/22 00:08:34;;;;;;;12.15;3.25;;;;;;;;;;5113055;28;20101;-76
2023/03/22 00:11:00;;;;;;;12.02;2.50;;;;;;;;;;5109950;28;20144;-77
2023/03/22 00:13:27;;;;;;;10.10;3.13;;;;;;;;;;5109868;27;20053;-77
2023/03/22 00:15:58;;;;;;;10.00;2.92;;;;;;;;;;5109424;27;20451;-77
2023/03/22 00:18:25;;;;;;;11.38;2.80;;;;;;;;;;5108244;28;20106;-77
2023/03/22 00:20:53;;;;;;;10.55;2.75;;;;;;;;;;5120729;27;20106;-77
2023/03/22 00:23:20;;;;;;;13.77;3.22;;;;;;;;;;5106431;27;20049;-77
2023/03/22 00:25:47;;;;;;;15.88;3.90;;;;;;;;;;5112488;28;20076;-77
2023/03/22 00:28:13;;;;;;;13.70;3.22;;;;;;;;;;5112610;28;20051;-77
2023/03/22 00:30:40;;;;;;;14.07;3.60;;;;;;;;;;5113968;27;20049;-77
2023/03/22 00:33:07;;;;;;;11.60;2.90;;;;;;;;;;5101631;28;20048;-77
2023/03/22 00:35:34;;;;;;;12.45;2.85;;;;;;;;;;5101759;28;20049;-77
2023/03/22 00:38:13;;;;;;;9.80;3.33;;;;;;;;;;5099334;28;20626;-77
2023/03/22 00:40:40;;;;;;;10.65;3.40;;;;;;;;;;5101052;28;20039;-77
2023/03/22 00:43:07;;;;;;;12.57;3.85;;;;;;;;;;5101373;28;20048;-76
2023/03/22 00:45:39;;;;;;;9.70;2.90;;;;;;;;;;5101668;28;20155;-77
2023/03/22 00:48:10;;;;;;;8.38;2.38;;;;;;;;;;5101550;28;20574;-77
2023/03/22 00:50:37;;;;;;;10.75;2.97;;;;;;;;;;5101239;28;20051;-77
2023/03/22 00:53:04;;;;;;;6.65;2.67;;;;;;;;;;5133323;27;20139;-77
2023/03/22 00:55:31;;;;;;;10.25;3.10;;;;;;;;;;5134064;27;20056;-77
2023/03/22 00:57:58;;;;;;;8.95;3.13;;;;;;;;;;5101094;28;20045;-77
2023/03/22 01:00:24;;;;;;;10.98;2.60;;;;;;;;;;5099018;28;20167;-77
2023/03/22 01:02:58;;;;;;;9.00;2.70;;;;;;;;;;5100086;28;20555;-77
2023/03/22 01:05:27;;;;;;;10.35;2.95;;;;;;;;;;5101062;28;20044;-77
2023/03/22 01:07:54;;;;;;;15.68;2.92;;;;;;;;;;5104861;28;20059;-77
2023/03/22 01:10:20;;;;;;;6.43;2.55;;;;;;;;;;5110489;28;20424;-77
2023/03/22 01:12:47;;;;;;;8.68;2.72;;;;;;;;;;5105369;27;20049;-77
2023/03/22 01:15:13;;;;;;;14.57;2.65;;;;;;;;;;5107127;28;20052;-77
2023/03/22 01:17:40;;;;;;;13.85;3.70;;;;;;;;;;5115437;27;20643;-77
2023/03/22 01:20:06;;;;;;;9.25;2.95;;;;;;;;;;5112278;27;20617;-77
2023/03/22 01:22:33;;;;;;;10.68;3.50;;;;;;;;;;5115577;28;20436;-77
2023/03/22 01:24:59;;;;;;;13.70;2.70;;;;;;;;;;5109445;27;20482;-77
2023/03/22 01:27:25;;;;;;;6.75;2.60;;;;;;;;;;5115942;28;20043;-77
2023/03/22 01:29:52;;;;;;;11.60;3.60;;;;;;;;;;5108094;28;20758;-76
2023/03/22 01:32:19;;;;;;;5.53;2.53;;;;;;;;;;5117191;28;22581;-76
2023/03/22 01:34:45;;;;;;;9.52;3.08;;;;;;;;;;5114098;28;20055;-77
2023/03/22 01:37:12;;;;;;;14.02;3.08;;;;;;;;;;5109320;28;20048;-77
2023/03/22 01:39:43;;;;;;;6.63;2.35;;;;;;;;;;5107529;27;21356;-76
2023/03/22 01:42:13;;;;;;;13.77;2.97;;;;;;;;;;5114455;28;20048;-76
2023/03/22 01:44:41;;;;;;;5.25;2.35;;;;;;;;;;5100510;28;20136;-76
2023/03/22 01:47:09;;;;;;;10.60;2.92;;;;;;;;;;5116944;28;20044;-77
2023/03/22 01:49:36;;;;;;;9.25;2.88;;;;;;;;;;5114871;28;20508;-76
2023/03/22 01:52:05;;;;;;;8.40;2.35;;;;;;;;;;5099558;28;20051;-77
2023/03/22 01:54:53;;;;;;;10.50;2.97;;;;;;;;;;5103522;28;20572;-76
2023/03/22 01:57:32;;;;;;;9.05;3.10;;;;;;;;;;5108628;27;20151;-76
2023/03/22 01:59:59;;;;;;;6.95;2.45;;;;;;;;;;5114012;28;20056;-76
2023/03/22 02:02:38;;;;;;;9.88;2.50;;;;;;;;;;5117403;27;21304;-77
2023/03/22 02:05:16;;;;;;;10.00;2.90;;;;;;;;;;5104699;28;20056;-77
2023/03/22 02:07:43;;;;;;;13.70;3.78;;;;;;;;;;5099108;28;20049;-76
2023/03/22 02:10:14;;;;;;;7.40;2.83;;;;;;;;;;5098431;28;20067;-77
2023/03/22 02:13:01;;;;;;;7.80;2.53;;;;;;;;;;5132993;27;20126;-77
2023/03/22 02:16:01;;;;;;;6.63;2.53;;;;;;;;;;5133131;27;20516;-77
2023/03/22 02:19:03;;;;;;;7.85;2.70;;;;;;;;;;5094003;28;20135;-77
2023/03/22 02:21:29;;;;;;;15.57;3.22;;;;;;;;;;5098899;28;20133;-77
2023/03/22 02:24:15;;;;;;;6.80;2.70;;;;;;;;;;5097879;28;20055;-77
2023/03/22 02:27:01;;;;;;;7.63;2.90;;;;;;;;;;5100485;28;20535;-77
2023/03/22 02:29:34;;;;;;;7.20;3.08;;;;;;;;;;5116040;28;20072;-77
2023/03/22 02:32:12;;;;;;;5.90;2.78;;;;;;;;;;5101719;28;20084;-76
2023/03/22 02:34:57;;;;;;;9.00;3.60;;;;;;;;;;5107330;28;20052;-77
2023/03/22 02:37:47;;;;;;;4.95;2.70;;;;;;;;;;5112108;28;20056;-77
2023/03/22 02:40:16;;;;;;;14.30;3.53;;;;;;;;;;5098456;28;20049;-77
2023/03/22 02:43:00;;;;;;;8.00;3.65;;;;;;;;;;5108085;28;20053;-77
2023/03/22 02:45:33;;;;;;;9.13;4.10;;;;;;;;;;5108702;27;20040;-77
2023/03/22 02:48:05;;;;;;;8.65;3.85;;;;;;;;;;5104117;28;20076;-77
2023/03/22 02:50:31;;;;;;;7.17;3.57;;;;;;;;;;5115598;27;20110;-77
2023/03/22 02:53:16;;;;;;;13.23;5.00;;;;;;;;;;5092483;28;20127;-76
2023/03/22 02:55:58;;;;;;;14.80;5.07;;;;;;;;;;5107813;28;20101;-77
2023/03/22 02:58:45;;;;;;;14.13;5.60;;;;;;;;;;5118878;27;20495;-76
2023/03/22 03:01:17;;;;;;;12.15;6.18;;;;;;;;;;5111936;28;20052;-76
2023/03/22 03:03:46;;;;;;;15.65;6.63;;;;;;;;;;5109036;28;20051;-76
2023/03/22 03:06:15;;;;;;;8.45;5.70;;;;;;;;;;5108075;27;20045;-76
2023/03/22 03:08:42;;;;;;;11.82;6.85;;;;;;;;;;5114187;28;20141;-78
2023/03/22 03:11:09;;;;;;;11.75;7.07;;;;;;;;;;5113342;28;20660;-77
2023/03/22 03:13:36;;;;;;;15.60;7.45;;;;;;;;;;5117315;27;20900;-78
2023/03/22 03:16:06;;;;;;;12.73;7.10;;;;;;;;;;5108786;28;20068;-78
2023/03/22 03:18:53;;;;;;;15.38;8.43;;;;;;;;;;5105782;28;20103;-77
2023/03/22 03:21:29;;;;;;;14.07;7.88;;;;;;;;;;5088460;28;20067;-76
2023/03/22 03:24:01;;;;;;;18.17;8.82;;;;;;;;;;5101282;28;20080;-77
2023/03/22 03:26:34;;;;;;;14.38;9.23;;;;;;;;;;5100948;28;20087;-77
2023/03/22 03:29:06;;;;;;;22.20;9.70;;;;;;;;;;5102335;28;20048;-77
2023/03/22 03:31:36;;;;;;;15.25;9.30;;;;;;;;;;5102984;28;20044;-77
2023/03/22 03:34:05;;;;;;;14.65;10.13;;;;;;;;;;5101711;28;20102;-77
2023/03/22 03:36:36;;;;;;;20.02;9.98;;;;;;;;;;5103518;28;20056;-77
2023/03/22 03:39:04;;;;;;;15.55;9.75;;;;;;;;;;5102424;28;20182;-77
2023/03/22 03:41:31;;;;;;;22.10;11.50;;;;;;;;;;5101709;28;20095;-77
2023/03/22 03:43:58;;;;;;;20.80;11.70;;;;;;;;;;5102248;28;20090;-76
2023/03/22 03:46:24;;;;;;;17.48;10.80;;;;;;;;;;5102489;28;20136;-77
2023/03/22 03:48:54;;;;;;;17.10;10.95;;;;;;;;;;5100144;28;20067;-77
2023/03/22 03:51:21;;;;;;;18.38;10.48;;;;;;;;;;5102525;28;20125;-77
2023/03/22 03:53:47;;;;;;;19.77;11.32;;;;;;;;;;5112658;28;20044;-77
2023/03/22 03:56:14;;;;;;;21.00;11.40;;;;;;;;;;5108339;28;20085;-78
2023/03/22 03:58:44;;;;;;;26.27;13.73;;;;;;;;;;5113740;28;20405;-77
2023/03/22 04:01:13;;;;;;;15.00;10.57;;;;;;;;;;5112340;28;20059;-78
2023/03/22 04:03:54;;;;;;;19.30;11.02;;;;;;;;;;5110249;28;20051;-77
2023/03/22 04:06:33;;;;;;;20.17;11.38;;;;;;;;;;5120386;28;20127;-78
2023/03/22 04:09:07;;;;;;;19.42;11.77;;;;;;;;;;5119610;28;20052;-77
2023/03/22 04:11:38;;;;;;;19.42;11.00;;;;;;;;;;5121257;28;20562;-78
2023/03/22 04:14:05;;;;;;;18.95;11.55;;;;;;;;;;5121145;28;20057;-77
2023/03/22 04:16:32;;;;;;;23.17;13.38;;;;;;;;;;5120431;27;20048;-77
2023/03/22 04:18:59;;;;;;;21.75;11.52;;;;;;;;;;5121056;28;20524;-77
2023/03/22 04:21:26;;;;;;;15.73;11.57;;;;;;;;;;5121226;28;20055;-77
2023/03/22 04:23:57;;;;;;;13.07;10.32;;;;;;;;;;5120196;28;20533;-77
2023/03/22 04:26:25;;;;;;;17.25;10.48;;;;;;;;;;5120283;28;20048;-77
2023/03/22 04:29:21;;;;;;;16.25;12.00;;;;;;;;;;5108263;27;20049;-77
2023/03/22 04:31:53;;;;;;;17.00;10.02;;;;;;;;;;5119946;28;20051;-77
2023/03/22 04:34:27;;;;;;;15.02;11.02;;;;;;;;;;5120447;27;20123;-77
2023/03/22 04:36:56;;;;;;;16.10;10.25;;;;;;;;;;5101977;28;20072;-77
2023/03/22 04:39:30;;;;;;;14.10;10.13;;;;;;;;;;5111806;28;20135;-76
2023/03/22 04:42:23;;;;;;;17.17;10.93;;;;;;;;;;5091814;28;20427;-76
2023/03/22 04:45:00;;;;;;;18.98;10.32;;;;;;;;;;5109928;28;20804;-77
2023/03/22 04:47:26;;;;;;;16.70;10.23;;;;;;;;;;5115863;28;20131;-77
2023/03/22 04:49:53;;;;;;;14.13;9.82;;;;;;;;;;5107575;28;20044;-77
2023/03/22 04:52:20;;;;;;;21.23;10.73;;;;;;;;;;5108709;27;20509;-77
2023/03/22 04:54:50;;;;;;;13.48;10.02;;;;;;;;;;5110538;28;20144;-77
2023/03/22 04:57:17;;;;;;;21.13;11.65;;;;;;;;;;5103821;28;20053;-76
2023/03/22 04:59:46;;;;;;;17.98;9.38;;;;;;;;;;5109682;28;20056;-77
2023/03/22 05:02:14;;;;;;;13.63;9.63;;;;;;;;;;5108772;28;20492;-77
2023/03/22 05:04:42;;;;;;;19.20;9.90;;;;;;;;;;5104571;28;20059;-76
2023/03/22 05:07:28;;;;;;;23.05;11.15;;;;;;;;;;5110982;28;20047;-77
2023/03/22 05:09:57;;;;;;;17.67;9.45;;;;;;;;;;5115288;28;20052;-77
2023/03/22 05:12:24;;;;;;;16.98;8.77;;;;;;;;;;5116154;28;20044;-76
2023/03/22 05:15:11;;;;;;;14.75;10.00;;;;;;;;;;5118808;28;20428;-77
2023/03/22 05:17:39;;;;;;;14.57;9.02;;;;;;;;;;5114935;28;20053;-76
2023/03/22 05:20:08;;;;;;;17.42;8.93;;;;;;;;;;5113615;28;20194;-77
2023/03/22 05:22:39;;;;;;;16.75;9.70;;;;;;;;;;5108677;28;20056;-76
2023/03/22 05:25:07;;;;;;;16.10;8.73;;;;;;;;;;5104334;28;20060;-76
2023/03/22 05:27:37;;;;;;;12.80;8.93;;;;;;;;;;5110445;28;20127;-77
2023/03/22 05:30:20;;;;;;;15.98;8.13;;;;;;;;;;5119054;28;20079;-76
2023/03/22 05:33:03;;;;;;;16.23;8.77;;;;;;;;;;5111863;28;20149;-77
2023/03/22 05:35:36;;;;;;;11.18;8.27;;;;;;;;;;5108893;28;20059;-77
2023/03/22 05:38:03;;;;;;;16.55;7.70;;;;;;;;;;5111958;28;20048;-76
2023/03/22 05:40:32;;;;;;;13.50;8.20;;;;;;;;;;5112471;28;20518;-77
2023/03/22 05:42:59;;;;;;;17.20;7.95;;;;;;;;;;5109626;28;20036;-76
2023/03/22 05:45:26;;;;;;;12.98;8.68;;;;;;;;;;5111742;28;20599;-77
2023/03/22 05:48:15;;;;;;;14.48;8.45;;;;;;;;;;5103429;28;20044;-77
2023/03/22 05:50:42;;;;;;;18.25;8.90;;;;;;;;;;5101877;27;20600;-77
2023/03/22 05:53:10;;;;;;;10.60;7.43;;;;;;;;;;5115653;28;20044;-77
2023/03/22 05:55:56;;;;;;;15.88;7.82;;;;;;;;;;5114283;28;20055;-77
2023/03/22 05:58:23;;;;;;;15.27;7.88;;;;;;;;;;5100204;28;20049;-76
2023/03/22 06:00:50;;;;;;;13.23;7.35;;;;;;;;;;5114784;27;20070;-76
2023/03/22 06:03:37;;;;;;;12.57;7.18;;;;;;;;;;5102489;28;20544;-76
2023/03/22 06:06:12;;;;;;;12.32;6.90;;;;;;;;;;5106983;28;20052;-76
2023/03/22 06:08:46;;;;;;;13.18;7.38;;;;;;;;;;5115157;28;20090;-76
2023/03/22 06:11:12;;;;;;;12.55;6.90;;;;;;;;;;5118142;28;20075;-76
2023/03/22 06:13:39;;;;;;;13.23;6.70;;;;;;;;;;5118325;28;20106;-76
2023/03/22 06:16:07;;;;;;;11.63;7.20;;;;;;;;;;5113001;28;20052;-76
2023/03/22 06:18:33;;;;;;;11.68;6.32;;;;;;;;;;5104007;28;20455;-75
2023/03/22 06:21:05;;;;;;;18.33;6.20;;;;;;;;;;5103587;28;20044;-76
2023/03/22 06:23:32;;;;;;;14.45;6.78;;;;;;;;;;5111978;28;20048;-76
2023/03/22 06:25:58;;;;;;;18.00;7.20;;;;;;;;;;5103157;28;20076;-76
2023/03/22 06:28:28;;;;;;;11.63;6.22;;;;;;;;;;5099063;28;20061;-76
2023/03/22 06:30:57;;;;;;;8.77;5.35;;;;;;;;;;5134555;27;20055;-76
2023/03/22 06:33:36;;;;;;;12.43;6.43;;;;;;;;;;5106567;28;20524;-76
2023/03/22 06:36:18;;;;;;;16.48;5.72;;;;;;;;;;5117988;27;20154;-76
2023/03/22 06:39:03;;;;;;;12.35;6.53;;;;;;;;;;5104870;28;20071;-76
2023/03/22 06:41:30;;;;;;;12.63;5.50;;;;;;;;;;5119815;27;20051;-76
2023/03/22 06:43:56;;;;;;;7.30;4.72;;;;;;;;;;5115862;28;20052;-76
2023/03/22 06:46:36;;;;;;;8.55;5.18;;;;;;;;;;5122009;28;20897;-76
2023/03/22 06:49:10;;;;;;;9.70;5.10;;;;;;;;;;5118110;28;20049;-76
2023/03/22 06:51:37;;;;;;;8.68;4.68;;;;;;;;;;5102696;28;20501;-76
2023/03/22 06:54:03;;;;;;;11.85;5.03;;;;;;;;;;5120389;27;20072;-76
2023/03/22 06:56:30;;;;;;;10.52;5.20;;;;;;;;;;5115874;28;20102;-76
2023/03/22 06:58:57;;;;;;;17.85;5.35;;;;;;;;;;5110352;28;20045;-76
2023/03/22 07:01:24;;;;;;;8.65;4.72;;;;;;;;;;5116263;28;20052;-76
2023/03/22 07:03:50;;;;;;;7.63;3.75;;;;;;;;;;5125926;27;20488;-76
2023/03/22 07:06:20;;;;;;;16.88;4.53;;;;;;;;;;5111798;28;20249;-76
2023/03/22 07:08:48;;;;;;;13.88;4.43;;;;;;;;;;5105241;28;20048;-76
2023/03/22 07:11:21;;;;;;;8.13;3.83;;;;;;;;;;5105953;28;20478;-76
2023/03/22 07:13:55;;;;;;;8.05;3.78;;;;;;;;;;5115898;28;20063;-77
2023/03/22 07:16:21;;;;;;;8.35;4.00;;;;;;;;;;5112637;28;20049;-77
2023/03/22 07:18:51;;;;;;;9.65;3.90;;;;;;;;;;5100766;28;20059;-76
2023/03/22 07:21:18;;;;;;;11.07;3.70;;;;;;;;;;5111990;27;20131;-77
2023/03/22 07:23:49;;;;;;;9.37;3.57;;;;;;;;;;5120774;28;20060;-76
2023/03/22 07:26:18;;;;;;;14.68;4.80;;;;;;;;;;5121372;27;20052;-77
2023/03/22 07:28:47;;;;;;;9.15;3.45;;;;;;;;;;5119361;28;20047;-76
2023/03/22 07:31:14;;;;;;;9.65;2.92;;;;;;;;;;5121875;28;20602;-77
2023/03/22 07:34:01;;;;;;;10.90;3.90;;;;;;;;;;5106761;28;20044;-76
2023/03/22 07:36:31;;;;;;;12.25;3.30;;;;;;;;;;5110533;28;20131;-76
2023/03/22 07:38:57;;;;;;;10.13;3.65;;;;;;;;;;5109681;28;20051;-77
2023/03/22 07:41:31;;;;;;;8.93;2.90;;;;;;;;;;5110775;28;20056;-77
2023/03/22 07:44:33;;;;;;;10.20;3.30;;;;;;;;;;5105788;27;20094;-76
2023/03/22 07:47:17;;;;;;;8.38;3.50;;;;;;;;;;5113054;27;20048;-76
2023/03/22 07:50:12;;;;;;;12.60;2.83;;;;;;;;;;5113620;28;20048;-76
2023/03/22 07:52:39;;;;;;;6.03;3.25;;;;;;;;;;5116508;27;20045;-76
2023/03/22 07:55:07;;;;;;;13.48;3.78;;;;;;;;;;5107142;28;20584;-76
2023/03/22 07:57:34;;;;;;;11.75;2.92;;;;;;;;;;5115512;27;20051;-76
2023/03/22 08:00:03;;;;;;;12.52;3.10;;;;;;;;;;5113553;27;20056;-76
2023/03/22 08:02:50;;;;;;;8.52;2.83;;;;;;;;;;5110892;28;20076;-76
2023/03/22 08:05:38;;;;;;;11.82;2.90;;;;;;;;;;5115044;28;20066;-77
2023/03/22 08:08:05;;;;;;;10.75;2.75;;;;;;;;;;5118947;27;20055;-78
2023/03/22 08:10:31;;;;;;;9.90;3.33;;;;;;;;;;5117465;27;20754;-75
2023/03/22 08:12:59;;;;;;;9.65;2.97;;;;;;;;;;5112513;28;20068;-77
2023/03/22 08:15:26;;;;;;;13.63;3.17;;;;;;;;;;5119470;27;20083;-78
2023/03/22 08:17:56;;;;;;;11.60;3.38;;;;;;;;;;5113504;28;20614;-78
2023/03/22 08:20:30;;;;;;;10.30;3.35;;;;;;;;;;5107618;28;20094;-77
2023/03/22 08:23:00;;;;;;;13.10;3.10;;;;;;;;;;5114508;28;20052;-75
2023/03/22 08:26:05;;;;;;;9.20;2.92;;;;;;;;;;5076534;28;20219;-75
2023/03/22 08:28:32;;;;;;;12.70;2.90;;;;;;;;;;5061732;28;20211;-79
2023/03/22 08:30:58;;;;;;;11.27;3.22;;;;;;;;;;5092237;28;20170;-75
2023/03/22 08:33:24;;;;;;;7.45;3.10;;;;;;;;;;5119892;28;20048;-75
2023/03/22 08:35:51;;;;;;;10.95;3.45;;;;;;;;;;5109787;28;20439;-78
2023/03/22 08:38:18;;;;;;;12.10;2.83;;;;;;;;;;5105089;28;20059;-77
2023/03/22 08:40:48;;;;;;;8.30;2.55;;;;;;;;;;5127428;27;20053;-77
2023/03/22 08:43:19;;;;;;;8.68;2.33;;;;;;;;;;5112427;27;20052;-77
2023/03/22 08:45:46;;;;;;;11.43;3.00;;;;;;;;;;5109625;28;20045;-78
2023/03/22 08:48:15;;;;;;;14.50;3.05;;;;;;;;;;5109769;28;20067;-77
2023/03/22 08:51:06;;;;;;;12.00;3.17;;;;;;;;;;5106379;28;20580;-77
2023/03/22 08:53:48;;;;;;;12.25;3.80;;;;;;;;;;5109557;28;20554;-77
2023/03/22 08:56:36;;;;;;;13.10;3.45;;;;;;;;;;5116149;27;20542;-77
2023/03/22 08:59:21;;;;;;;11.75;3.28;;;;;;;;;;5118422;28;20067;-78
2023/03/22 09:02:08;;;;;;;11.15;3.38;;;;;;;;;;5115742;27;20048;-77
2023/03/22 09:04:35;;;;;;;12.35;3.22;;;;;;;;;;5115328;28;20618;-77
2023/03/22 09:07:01;;;;;;;11.13;3.90;;;;;;;;;;5113117;28;20561;-77
2023/03/22 09:09:29;;;;;;;11.50;2.95;;;;;;;;;;5108669;28;20095;-76
2023/03/22 09:11:56;;;;;;;9.48;2.70;;;;;;;;;;5104984;27;20124;-78
2023/03/22 09:14:23;;;;;;;5.53;2.63;;;;;;;;;;5117644;28;20048;-77
2023/03/22 09:16:50;;;;;;;7.03;2.88;;;;;;;;;;5116786;28;20055;-77
2023/03/22 09:19:17;;;;;;;8.63;2.95;;;;;;;;;;5119537;28;20052;-77
2023/03/22 09:21:43;;;;;;;10.50;4.10;;;;;;;;;;5118306;28;20567;-77
2023/03/22 09:24:17;;;;;;;19.85;3.80;;;;;;;;;;5120157;28;20076;-77
2023/03/22 09:26:48;;;;;;;10.40;3.40;;;;;;;;;;5111728;28;20053;-77
2023/03/22 09:29:18;;;;;;;9.15;3.50;;;;;;;;;;5107089;28;20046;-77
2023/03/22 09:31:47;;;;;;;15.80;3.53;;;;;;;;;;5107509;28;20048;-76
2023/03/22 09:34:21;;;;;;;9.68;4.05;;;;;;;;;;5113447;28;20143;-76
2023/03/22 09:36:47;;;;;;;8.25;3.05;;;;;;;;;;5106736;28;20834;-77
2023/03/22 09:39:17;;;;;;;11.70;2.90;;;;;;;;;;5103645;28;20051;-76
2023/03/22 09:41:53;;;;;;;11.70;3.70;;;;;;;;;;5108969;28;20044;-76
2023/03/22 09:44:26;;;;;;;11.48;3.50;;;;;;;;;;5113411;28;20052;-77
2023/03/22 09:46:53;;;;;;;13.35;4.13;;;;;;;;;;5113085;28;20161;-77
2023/03/22 09:49:23;;;;;;;10.63;2.85;;;;;;;;;;5111691;27;20140;-77
2023/03/22 09:51:50;;;;;;;7.45;3.00;;;;;;;;;;5113317;27;20048;-77
2023/03/22 09:54:26;;;;;;;11.05;3.60;;;;;;;;;;5115136;28;20059;-78
2023/03/22 09:57:12;;;;;;;10.90;3.65;;;;;;;;;;5118692;28;20087;-77
2023/03/22 09:59:41;;;;;;;12.98;3.75;;;;;;;;;;5104800;27;20059;-77
2023/03/22 10:02:18;;;;;;;10.10;3.13;;;;;;;;;;5112484;27;20655;-77
2023/03/22 10:05:14;;;;;;;12.27;3.20;;;;;;;;;;5116850;28;20048;-77
2023/03/22 10:07:52;;;;;;;9.18;3.20;;;;;;;;;;5101083;28;20044;-77
2023/03/22 10:10:20;;;;;;;12.55;3.20;;;;;;;;;;5105085;27;20767;-77
2023/03/22 10:13:04;;;;;;;11.35;3.05;;;;;;;;;;5120820;27;20048;-77
2023/03/22 10:15:38;;;;;;;10.10;3.13;;;;;;;;;;5120267;27;20101;-76
2023/03/22 10:18:11;;;;;;;11.02;3.70;;;;;;;;;;5123541;28;20087;-77
2023/03/22 10:20:37;;;;;;;;;;;;;;;;;;5118865;27;20048;-77
2023/03/22 10:23:05;;;;;;;10.82;3.10;;;;;;;;;;5110517;28;34799;-77
2023/03/22 10:25:34;;;;;;;12.20;3.58;;;;;;;;;;5104130;28;20143;-77
2023/03/22 10:28:00;;;;;;;11.07;3.25;;;;;;;;;;5120283;28;20048;-77
2023/03/22 10:30:31;;;;;;;8.52;3.00;;;;;;;;;;5121264;27;20074;-78
2023/03/22 10:33:12;;;;;;;13.93;3.65;;;;;;;;;;5122190;27;20044;-77
2023/03/22 10:35:39;;;;;;;9.73;3.35;;;;;;;;;;5121524;27;20188;-78
2023/03/22 10:38:08;;;;;;;10.30;2.88;;;;;;;;;;5123460;27;20114;-78
2023/03/22 10:40:35;;;;;;;10.35;2.88;;;;;;;;;;5116464;27;20516;-77
2023/03/22 10:43:06;;;;;;;10.70;3.53;;;;;;;;;;5115156;27;20147;-76
2023/03/22 10:45:33;;;;;;;8.13;3.00;;;;;;;;;;5114807;27;20048;-76
2023/03/22 10:48:05;;;;;;;7.60;2.72;;;;;;;;;;5118641;27;20054;-77
2023/03/22 10:50:36;;;;;;;11.90;2.83;;;;;;;;;;5117152;27;20072;-77
2023/03/22 10:53:05;;;;;;;10.32;3.58;;;;;;;;;;5116566;27;20594;-76
2023/03/22 10:55:37;;;;;;;8.77;3.38;;;;;;;;;;5121638;27;20135;-76
2023/03/22 10:58:13;;;;;;;11.63;3.80;;;;;;;;;;5114885;27;20101;-76
2023/03/22 11:00:47;;;;;;;9.63;3.03;;;;;;;;;;5116943;27;20108;-75
2023/03/22 11:03:24;;;;;;;8.25;3.78;;;;;;;;;;5111572;28;20063;-76
2023/03/22 11:05:57;;;;;;;9.02;3.15;;;;;;;;;;5118467;27;20052;-77
2023/03/22 11:08:24;;;;;;;10.63;3.28;;;;;;;;;;5119229;27;20123;-76
2023/03/22 11:10:53;;;;;;;8.90;3.05;;;;;;;;;;5115538;27;20150;-77
2023/03/22 11:13:23;;;;;;;7.78;2.65;;;;;;;;;;5110197;28;20093;-77
2023/03/22 11:16:01;;;;;;;8.77;3.03;;;;;;;;;;5120640;27;20051;-77
2023/03/22 11:18:32;;;;;;;8.32;3.17;;;;;;;;;;5119477;28;20059;-75
2023/03/22 11:21:03;;;;;;;10.73;3.67;;;;;;;;;;5116827;28;20779;-77
2023/03/22 11:23:33;;;;;;;8.00;3.03;;;;;;;;;;5122514;27;20060;-76
2023/03/22 11:26:05;;;;;;;8.48;2.42;;;;;;;;;;5117236;27;20056;-77
2023/03/22 11:28:36;;;;;;;8.13;3.33;;;;;;;;;;5120100;27;20083;-77
2023/03/22 11:31:07;;;;;;;6.72;2.78;;;;;;;;;;5119765;27;20635;-77
2023/03/22 11:33:38;;;;;;;10.48;2.75;;;;;;;;;;5121202;27;20575;-76
2023/03/22 11:36:16;;;;;;;5.90;2.95;;;;;;;;;;5119540;27;20044;-76
2023/03/22 11:38:43;;;;;;;10.13;3.00;;;;;;;;;;5122225;28;20094;-77
2023/03/22 11:41:21;;;;;;;8.50;2.70;;;;;;;;;;5112341;28;20052;-76
2023/03/22 11:43:49;;;;;;;8.93;3.00;;;;;;;;;;5121624;28;20063;-76
2023/03/22 11:46:21;;;;;;;9.63;2.73;;;;;;;;;;5119887;27;20606;-77
2023/03/22 11:48:49;;;;;;;11.45;3.10;;;;;;;;;;5110306;27;20054;-76
2023/03/22 11:51:26;;;;;;;9.93;2.80;;;;;;;;;;5119055;27;20052;-76
2023/03/22 11:54:01;;;;;;;11.80;2.50;;;;;;;;;;5119561;27;20056;-76
2023/03/22 11:56:30;;;;;;;6.68;2.65;;;;;;;;;;5120283;27;20044;-76
2023/03/22 11:59:07;;;;;;;7.05;2.75;;;;;;;;;;5119173;27;20052;-76
2023/03/22 12:01:39;;;;;;;10.23;2.83;;;;;;;;;;5116242;27;20051;-77
2023/03/22 12:04:11;;;;;;;5.90;2.65;;;;;;;;;;5108862;27;20056;-77
2023/03/22 12:06:39;;;;;;;8.57;2.63;;;;;;;;;;5109665;27;20045;-77
2023/03/22 12:09:35;;;;;;;6.68;2.30;;;;;;;;;;5111289;28;20052;-78
2023/03/22 12:12:07;;;;;;;7.20;2.75;;;;;;;;;;5119218;28;20100;-79
2023/03/22 12:14:46;;;;;;;11.57;3.22;;;;;;;;;;5118125;27;20048;-78
2023/03/22 12:17:23;;;;;;;11.48;2.63;;;;;;;;;;5112401;28;20076;-78
2023/03/22 12:19:56;;;;;;;9.30;4.93;;;;;;;;;;5114383;28;20187;-77
2023/03/22 12:22:32;;;;;;;9.70;2.75;;;;;;;;;;5107622;27;20048;-78
2023/03/22 12:24:59;;;;;;;7.90;2.85;;;;;;;;;;5116676;28;20078;-77
2023/03/22 12:27:27;;;;;;;7.85;2.58;;;;;;;;;;5115133;27;20097;-78
2023/03/22 12:30:15;;;;;;;7.97;2.83;;;;;;;;;;5105158;27;20096;-78
2023/03/22 12:32:48;;;;;;;6.53;2.78;;;;;;;;;;5121084;27;20044;-75
2023/03/22 12:35:17;;;;;;;5.60;2.40;;;;;;;;;;5109967;27;20214;-77
2023/03/22 12:37:46;;;;;;;12.80;4.43;;;;;;;;;;5111394;27;20057;-77
2023/03/22 12:40:21;;;;;;;7.65;3.58;;;;;;;;;;5111377;27;20048;-78
2023/03/22 12:42:48;;;;;;;8.48;2.40;;;;;;;;;;5105274;28;20059;-77
2023/03/22 12:45:21;;;;;;;9.63;2.45;;;;;;;;;;5119817;27;20044;-77
2023/03/22 12:47:52;;;;;;;6.00;2.67;;;;;;;;;;5111076;28;20535;-78
2023/03/22 12:50:20;;;;;;;7.47;3.15;;;;;;;;;;5116833;27;20056;-78
2023/03/22 12:52:48;;;;;;;10.20;2.78;;;;;;;;;;5108562;27;20048;-77
2023/03/22 12:55:36;;;;;;;10.32;2.53;;;;;;;;;;5113317;28;20062;-81
2023/03/22 12:58:14;;;;;;;8.20;3.40;;;;;;;;;;5006534;28;98261;-82
2023/03/22 13:00:44;;;;;;;10.60;3.88;;;;;;;;;;4992077;28;98249;-82
2023/03/22 13:03:14;;;;;;;6.93;2.75;;;;;;;;;;4973628;28;98490;-83
2023/03/22 13:05:43;;;;;;;7.15;2.58;;;;;;;;;;4997079;28;99209;-82
2023/03/22 13:08:11;;;;;;;5.78;2.67;;;;;;;;;;4971318;28;99640;-83
2023/03/22 13:10:47;;;;;;;7.68;2.60;;;;;;;;;;4991226;28;98681;-84
2023/03/22 13:13:20;;;;;;;5.72;2.42;;;;;;;;;;4995284;28;99384;-85
2023/03/22 13:16:05;;;;;;;6.05;2.55;;;;;;;;;;4984075;28;98125;-84
2023/03/22 13:18:35;;;;;;;10.05;3.30;;;;;;;;;;5002934;28;98204;-85
2023/03/22 13:21:21;;;;;;;9.00;2.85;;;;;;;;;;4980812;28;100157;-82
2023/03/22 13:24:07;;;;;;;6.57;2.30;;;;;;;;;;4980888;28;98418;-84
2023/03/22 13:26:36;;;;;;;8.43;2.60;;;;;;;;;;4970469;28;99784;-84
2023/03/22 13:29:17;;;;;;;6.53;2.40;;;;;;;;;;4972239;28;98948;-84
2023/03/22 13:31:50;;;;;;;7.75;2.75;;;;;;;;;;4983914;28;98229;-84
2023/03/22 13:34:16;;;;;;;;;;;;;;;;;;4974308;28;99884;-79
2023/03/22 13:36:56;;;;;;;5.13;2.42;;;;;;;;;;4969275;28;124699;-84
2023/03/22 13:39:24;;;;;;;5.07;2.35;;;;;;;;;;4977341;28;99027;-83
2023/03/22 13:42:21;;;;;;;8.43;3.90;;;;;;;;;;4991445;28;99482;-81
2023/03/22 13:45:02;;;;;;;6.10;2.67;;;;;;;;;;4969604;28;98706;-84
2023/03/22 13:47:33;;;;;;;9.80;3.30;;;;;;;;;;4969118;28;99784;-84
2023/03/22 13:50:13;;;;;;;7.22;3.90;;;;;;;;;;4986478;28;98949;-85
2023/03/22 13:52:46;;;;;;;4.97;3.08;;;;;;;;;;4989328;28;98590;-84
2023/03/22 13:55:15;;;;;;;5.88;2.95;;;;;;;;;;4999147;28;99523;-80
2023/03/22 13:57:46;;;;;;;6.28;2.95;;;;;;;;;;4982441;28;99685;-82
2023/03/22 14:00:34;;;;;;;8.18;2.80;;;;;;;;;;4982973;28;98263;-82
2023/03/22 14:03:03;;;;;;;8.10;3.40;;;;;;;;;;4973696;28;99418;-80
2023/03/22 14:05:31;;;;;;;7.03;3.20;;;;;;;;;;4989936;28;98857;-86
2023/03/22 14:07:59;;;;;;;5.05;2.80;;;;;;;;;;4982255;28;99470;-86
2023/03/22 14:10:31;;;;;;;8.90;3.50;;;;;;;;;;4974595;28;99966;-84
2023/03/22 14:12:57;;;;;;;8.82;3.28;;;;;;;;;;4978028;28;98251;-84
2023/03/22 14:15:43;;;;;;;7.63;3.28;;;;;;;;;;4970311;28;99791;-83
2023/03/22 14:18:16;;;;;;;4.57;2.80;;;;;;;;;;4981566;28;100156;-82
2023/03/22 14:20:43;;;;;;;6.00;3.60;;;;;;;;;;4975133;28;99281;-82
2023/03/22 14:23:19;;;;;;;4.85;3.20;;;;;;;;;;4980283;28;99209;-81
2023/03/22 14:25:47;;;;;;;7.38;3.17;;;;;;;;;;4963990;28;100647;-79
2023/03/22 14:28:31;;;;;;;6.53;3.20;;;;;;;;;;4977686;28;98629;-82
2023/03/22 14:30:56;;;;;;;5.47;3.10;;;;;;;;;;4983357;28;99994;-80
2023/03/22 14:33:22;;;;;;;6.60;3.60;;;;;;;;;;4985076;28;98210;-82
2023/03/22 14:35:58;;;;;;;5.40;3.72;;;;;;;;;;4975114;28;99282;-82
2023/03/22 14:38:32;;;;;;;13.70;3.88;;;;;;;;;;4974602;28;98925;-83
2023/03/22 14:41:14;;;;;;;6.35;4.00;;;;;;;;;;4955682;28;98219;-82
2023/03/22 14:43:40;;;;;;;8.52;4.00;;;;;;;;;;4952776;28;100017;-83
2023/03/22 14:46:17;;;;;;;7.03;4.05;;;;;;;;;;4956794;28;99217;-83
2023/03/22 14:48:46;;;;;;;6.95;3.85;;;;;;;;;;4968425;28;98622;-82
2023/03/22 14:51:18;;;;;;;10.20;3.97;;;;;;;;;;4977090;28;99430;-83
2023/03/22 14:53:44;;;;;;;6.00;3.60;;;;;;;;;;4968446;28;98654;-83
2023/03/22 14:56:20;;;;;;;8.77;4.22;;;;;;;;;;4960041;28;98551;-83
2023/03/22 14:58:46;;;;;;;6.72;3.97;;;;;;;;;;4967656;28;100147;-83
2023/03/22 15:01:16;;;;;;;6.85;4.68;;;;;;;;;;4961794;28;98616;-81
2023/03/22 15:03:46;;;;;;;7.10;4.30;;;;;;;;;;4961795;28;99858;-83
2023/03/22 15:06:12;;;;;;;6.10;4.07;;;;;;;;;;4963325;28;99224;-85